»·PEaware :: N8855Y KDTA-KENV

N8855Y :: KDTA-KENV

FLIGHT INFORMATION

Flight Status: Arrived
Operator: Privately registered:
United States
More flights under this callsign
Pilot: Alan J. (5709)
Aircraft: CESSNA 401-UTILINER 402-BUSNESSLINER
(C402)
More flights by this aircraft type
Origin: KDTA Delta Mun
United States
Destination: KENV Wendover
United States
More flights between these airports :: More routes between these airports
Route: DTA V21 FFU V200 STACO V32 BVL
File this flight plan on PilotEdge
Remarks:
Altitude:
(Current/Filed)
12,000ft
Speed:
(Current/Filed)
190kts
Departed: 09-Apr-17 11:13 AM
Arrived: 09-Apr-17 12:39 PM
Distance/Time
Traveled:
107nm/1:26
Distance/Time
To Go:
Arrived

Flight Plot

Page will automatically refresh every two minutes.

Flight plan parsing failed; only flown route is shown


Map Options




Map Legend


Flown Route
Filed Route
Departure Airport
Arrival Airport
Navaid (VOR, NDB)
Fix

Horizontal Profiles

Position Reports

Time Latitude Longitude Heading Altitude Ground
Speed
09-Apr-17 10:57 39.385884 -112.511631 45 4762ft 0kts
09-Apr-17 10:58 39.385884 -112.511631 45 4762ft 0kts
09-Apr-17 10:59 39.385886 -112.511629 45 4762ft 0kts
09-Apr-17 11:00 39.385886 -112.511628 45 4762ft 0kts
09-Apr-17 11:01 39.385720 -112.511809 207 4762ft 8kts
09-Apr-17 11:02 39.385295 -112.511804 161 4762ft 0kts
09-Apr-17 11:03 39.385293 -112.511803 161 4762ft 0kts
09-Apr-17 11:04 39.385244 -112.511784 162 4762ft 3kts
09-Apr-17 11:05 39.382990 -112.510891 221 4762ft 13kts
09-Apr-17 11:06 39.379395 -112.507998 136 4762ft 38kts
09-Apr-17 11:07 39.376024 -112.503670 109 4762ft 0kts
09-Apr-17 11:08 39.376024 -112.503670 109 4762ft 0kts
09-Apr-17 11:09 39.376024 -112.503670 109 4762ft 0kts
09-Apr-17 11:10 39.376024 -112.503669 109 4762ft 0kts
09-Apr-17 11:11 39.376024 -112.503669 109 4762ft 0kts
09-Apr-17 11:12 39.376024 -112.503669 109 4762ft 0kts
09-Apr-17 11:13 39.376270 -112.502261 359 4762ft 2kts
09-Apr-17 11:14 39.382503 -112.502214 1 4762ft 80kts
09-Apr-17 11:15 39.409177 -112.503407 354 5187ft 103kts
09-Apr-17 11:16 39.436799 -112.495073 67 6122ft 112kts
09-Apr-17 11:17 39.419460 -112.469567 189 6977ft 120kts
09-Apr-17 11:18 39.385936 -112.476073 196 7676ft 128kts
09-Apr-17 11:19 39.357156 -112.464133 100 8309ft 123kts
09-Apr-17 11:20 39.377454 -112.442000 345 8921ft 111kts
09-Apr-17 11:21 39.406195 -112.443372 0 9608ft 108kts
09-Apr-17 11:22 39.436864 -112.432060 17 10272ft 112kts
09-Apr-17 11:23 39.461081 -112.414575 6 11049ft 82kts
09-Apr-17 11:24 39.484098 -112.400751 10 11352ft 98kts
09-Apr-17 11:25 39.513382 -112.384172 16 11671ft 132kts
09-Apr-17 11:26 39.550746 -112.362756 17 11911ft 159kts
09-Apr-17 11:27 39.594082 -112.337779 18 12000ft 179kts
09-Apr-17 11:28 39.640041 -112.311216 18 11996ft 183kts
09-Apr-17 11:29 39.686719 -112.284215 18 11991ft 184kts
09-Apr-17 11:30 39.733751 -112.256963 18 11989ft 187kts
09-Apr-17 11:31 39.782402 -112.228742 18 11986ft 193kts
09-Apr-17 11:32 39.831793 -112.200013 18 11983ft 195kts
09-Apr-17 11:33 39.881505 -112.171041 18 11981ft 196kts
09-Apr-17 11:34 39.931245 -112.142032 18 12006ft 195kts
09-Apr-17 11:35 39.981166 -112.112879 18 12005ft 196kts
09-Apr-17 11:36 40.031058 -112.083687 18 12006ft 197kts
09-Apr-17 11:37 40.081002 -112.054437 18 12007ft 197kts
09-Apr-17 11:38 40.130924 -112.025133 18 12007ft 197kts
09-Apr-17 11:39 40.180877 -111.995767 18 12008ft 197kts
09-Apr-17 11:40 40.230981 -111.966260 18 12010ft 197kts
09-Apr-17 11:41 40.281865 -111.947416 341 12002ft 186kts
09-Apr-17 11:42 40.324696 -111.983316 323 12009ft 183kts
09-Apr-17 11:43 40.367077 -112.020378 324 12011ft 183kts
09-Apr-17 11:44 40.409607 -112.057451 324 12011ft 184kts
09-Apr-17 11:45 40.452330 -112.094709 324 12011ft 184kts
09-Apr-17 11:46 40.494962 -112.131933 324 12011ft 184kts
09-Apr-17 11:47 40.537584 -112.169198 324 12011ft 184kts
09-Apr-17 11:48 40.580226 -112.206542 324 12011ft 184kts
09-Apr-17 11:49 40.622996 -112.244057 324 12011ft 184kts
09-Apr-17 11:50 40.665663 -112.281541 324 12010ft 184kts
09-Apr-17 11:51 40.708283 -112.319042 324 12010ft 184kts
09-Apr-17 11:52 40.750887 -112.356551 324 12009ft 184kts
09-Apr-17 11:53 40.793421 -112.394005 324 12007ft 184kts
09-Apr-17 11:54 40.821718 -112.444796 267 12006ft 185kts
09-Apr-17 11:55 40.816008 -112.512682 268 12004ft 186kts
09-Apr-17 11:56 40.811320 -112.580873 268 12003ft 187kts
09-Apr-17 11:57 40.806678 -112.649230 268 12003ft 187kts
09-Apr-17 11:58 40.801986 -112.717937 268 12002ft 187kts
09-Apr-17 11:59 40.797270 -112.786443 268 12001ft 187kts
09-Apr-17 12:00 40.792510 -112.854998 268 12000ft 188kts
09-Apr-17 12:01 40.787713 -112.923605 267 12000ft 188kts
09-Apr-17 12:02 40.782869 -112.992313 267 12005ft 188kts
09-Apr-17 12:03 40.777939 -113.061380 267 12004ft 188kts
09-Apr-17 12:04 40.772980 -113.130289 267 12004ft 189kts
09-Apr-17 12:05 40.767984 -113.199335 267 12005ft 189kts
09-Apr-17 12:06 40.762926 -113.268515 267 12004ft 190kts
09-Apr-17 12:07 40.757799 -113.338028 267 12003ft 190kts
09-Apr-17 12:08 40.752677 -113.407431 267 12003ft 190kts
09-Apr-17 12:09 40.747467 -113.477019 267 12002ft 191kts
09-Apr-17 12:10 40.742202 -113.546659 267 12002ft 191kts
09-Apr-17 12:11 40.736908 -113.616347 267 12001ft 189kts
09-Apr-17 12:12 40.731651 -113.684855 267 12001ft 185kts
09-Apr-17 12:13 40.726314 -113.753853 266 11615ft 197kts
09-Apr-17 12:14 40.724051 -113.827361 270 10930ft 203kts
09-Apr-17 12:15 40.722183 -113.902381 269 10243ft 205kts
09-Apr-17 12:16 40.695059 -113.960196 187 9545ft 216kts
09-Apr-17 12:17 40.669573 -113.905682 65 9067ft 210kts
09-Apr-17 12:18 40.690050 -113.836747 72 8999ft 195kts
09-Apr-17 12:19 40.702972 -113.770371 73 9000ft 180kts
09-Apr-17 12:20 40.714936 -113.707687 73 9000ft 173kts
09-Apr-17 12:21 40.726482 -113.646979 73 9001ft 168kts
09-Apr-17 12:22 40.737689 -113.587866 73 9001ft 165kts
09-Apr-17 12:23 40.751803 -113.531005 68 9001ft 162kts
09-Apr-17 12:24 40.766692 -113.475024 68 9002ft 161kts
09-Apr-17 12:25 40.779661 -113.418594 96 8988ft 163kts
09-Apr-17 12:26 40.749972 -113.418719 259 9004ft 142kts
09-Apr-17 12:27 40.747047 -113.470874 266 9003ft 144kts
09-Apr-17 12:28 40.743544 -113.523731 266 9002ft 145kts
09-Apr-17 12:29 40.739997 -113.576966 266 9002ft 146kts
09-Apr-17 12:30 40.736507 -113.631136 266 8836ft 156kts
09-Apr-17 12:31 40.731802 -113.687728 261 8684ft 142kts
09-Apr-17 12:32 40.727762 -113.740197 267 7589ft 145kts
09-Apr-17 12:33 40.725318 -113.792449 266 6585ft 138kts
09-Apr-17 12:34 40.721475 -113.839005 266 6150ft 111kts
09-Apr-17 12:35 40.719489 -113.876883 270 5971ft 100kts
09-Apr-17 12:36 40.718637 -113.913193 268 5710ft 105kts
09-Apr-17 12:37 40.718236 -113.952902 276 5169ft 109kts
09-Apr-17 12:38 40.718730 -113.992490 274 4542ft 105kts
09-Apr-17 12:39 40.718940 -114.026583 271 4240ft 64kts
09-Apr-17 12:40 40.720195 -114.035336 332 4240ft 19kts
09-Apr-17 12:41 40.725978 -114.042490 13 4240ft 13kts
09-Apr-17 12:42 40.727482 -114.040547 359 4240ft 0kts
09-Apr-17 12:43 40.727481 -114.040547 359 4240ft 0kts

Navigation Log

Ident Type
Flight plan parsing failed, navigation log unavailable